Carroll Station, Nevada
Current Conditions -  °F | °C
As of 4:56 PM on Wednesday 22 Oct 2014 (Local Time) from KNFL Reporting Station
Overcast Overcast  
Wind Chill: 65°   Ceiling: 19000
Heat Index: 65°   Visibility: 10mi
Dew Point: 21°   Wind: 9mph
Humidity: 19%   Direction: 40°NE
Pressure: 30.04"   Gusts: NA
Location:  39.5809°N, 118.333°W
Report Text: KNFL 222356Z 04008KT 10SM SCT150 BKN190 OVC250 18/M06 A3004 RMK AO2 SLP142 ACSL DSNT W-NW T01831061 10211 20144 56010
Loading
Personal Weather Stations






























Interactive Weather Map
Tropical Storm Tracking
New forecast layout! Learn more

10-Day Weather Forecast

Advertisements
Track Severe Weather on mobile